Terminal Aerodrome Forecast
Issued by NWS Blacksburg, VA

Current Version | Previous Version | Graphics & Text | Print | Product List | Glossary On
Versions: 1 2 3 4 5 6 7 8 9 10 11 12 13 14 15 16 17 18 19 20 21 22 23 24 25 26 27 28 29 30 31 32 33 34 35 36 37 38 39 40 41
000
FTUS41 KRNK 050520
TAFBLF
TAF
KBLF 050520Z 0506/0606 19008G16KT 6SM -DZ OVC015
     FM050700 23008G16KT P6SM OVC005
      TEMPO 0508/0512 4SM BR OVC004
     FM051300 31009G17KT P6SM OVC015
     FM051700 32007KT P6SM SCT020 BKN250
     FM060000 VRB04KT P6SM BKN130 OVC220=

USA.gov is the U.S. government's official web portal to all federal, state and local government web resources and services.